sensor_id;sensor_type;location;lat;lon;timestamp;P1;durP1;ratioP1;P2;durP2;ratioP2
40367;SDS011;26075;43.320;21.920;2022-12-13T00:05:15;28.63;;;19.98;;
40367;SDS011;26075;43.320;21.920;2022-12-13T00:10:16;32.08;;;20.30;;
40367;SDS011;26075;43.320;21.920;2022-12-13T00:15:17;30.02;;;20.23;;
40367;SDS011;26075;43.320;21.920;2022-12-13T00:20:18;31.98;;;22.20;;
40367;SDS011;26075;43.320;21.920;2022-12-13T00:25:19;33.92;;;22.83;;
40367;SDS011;26075;43.320;21.920;2022-12-13T00:35:57;36.92;;;23.85;;
40367;SDS011;26075;43.320;21.920;2022-12-13T00:40:58;32.40;;;23.02;;
40367;SDS011;26075;43.320;21.920;2022-12-13T00:51:56;27.95;;;20.08;;
40367;SDS011;26075;43.320;21.920;2022-12-13T00:56:57;33.35;;;21.20;;
40367;SDS011;26075;43.320;21.920;2022-12-13T01:01:58;30.40;;;20.98;;
40367;SDS011;26075;43.320;21.920;2022-12-13T01:12:56;36.97;;;24.17;;
40367;SDS011;26075;43.320;21.920;2022-12-13T01:17:57;36.38;;;24.48;;
40367;SDS011;26075;43.320;21.920;2022-12-13T01:28:55;38.75;;;24.50;;
40367;SDS011;26075;43.320;21.920;2022-12-13T01:33:56;41.25;;;25.88;;
40367;SDS011;26075;43.320;21.920;2022-12-13T01:49:49;33.47;;;21.23;;
40367;SDS011;26075;43.320;21.920;2022-12-13T01:54:53;36.58;;;22.13;;
40367;SDS011;26075;43.320;21.920;2022-12-13T02:05:59;38.10;;;24.83;;
40367;SDS011;26075;43.320;21.920;2022-12-13T02:22:25;38.00;;;26.33;;
40367;SDS011;26075;43.320;21.920;2022-12-13T02:39:22;41.85;;;28.88;;
40367;SDS011;26075;43.320;21.920;2022-12-13T02:44:36;39.50;;;26.70;;
40367;SDS011;26075;43.320;21.920;2022-12-13T02:49:43;37.15;;;25.40;;
40367;SDS011;26075;43.320;21.920;2022-12-13T02:59:48;41.58;;;25.88;;
40367;SDS011;26075;43.320;21.920;2022-12-13T03:04:53;52.63;;;32.38;;
40367;SDS011;26075;43.320;21.920;2022-12-13T03:11:27;49.97;;;33.50;;
40367;SDS011;26075;43.320;21.920;2022-12-13T03:16:32;53.72;;;33.78;;
40367;SDS011;26075;43.320;21.920;2022-12-13T03:27:28;41.60;;;26.38;;
40367;SDS011;26075;43.320;21.920;2022-12-13T03:32:29;40.40;;;27.40;;
40367;SDS011;26075;43.320;21.920;2022-12-13T03:43:08;38.70;;;26.45;;
40367;SDS011;26075;43.320;21.920;2022-12-13T03:54:00;41.80;;;26.38;;
40367;SDS011;26075;43.320;21.920;2022-12-13T04:04:58;40.10;;;25.55;;
40367;SDS011;26075;43.320;21.920;2022-12-13T04:09:59;41.28;;;26.95;;
40367;SDS011;26075;43.320;21.920;2022-12-13T04:20:56;42.72;;;27.27;;
40367;SDS011;26075;43.320;21.920;2022-12-13T04:31:55;41.80;;;27.98;;
40367;SDS011;26075;43.320;21.920;2022-12-13T04:36:59;42.88;;;26.95;;
40367;SDS011;26075;43.320;21.920;2022-12-13T04:41:59;43.75;;;28.52;;
40367;SDS011;26075;43.320;21.920;2022-12-13T04:47:00;44.22;;;27.27;;
40367;SDS011;26075;43.320;21.920;2022-12-13T04:57:58;42.88;;;26.75;;
40367;SDS011;26075;43.320;21.920;2022-12-13T05:02:59;43.10;;;25.25;;
40367;SDS011;26075;43.320;21.920;2022-12-13T05:08:00;44.05;;;26.35;;
40367;SDS011;26075;43.320;21.920;2022-12-13T05:13:01;46.50;;;28.73;;
40367;SDS011;26075;43.320;21.920;2022-12-13T05:18:03;41.88;;;26.60;;
40367;SDS011;26075;43.320;21.920;2022-12-13T05:23:06;39.47;;;25.15;;
40367;SDS011;26075;43.320;21.920;2022-12-13T05:28:07;42.15;;;25.92;;
40367;SDS011;26075;43.320;21.920;2022-12-13T05:33:08;42.50;;;27.50;;
40367;SDS011;26075;43.320;21.920;2022-12-13T05:38:09;52.00;;;30.00;;
40367;SDS011;26075;43.320;21.920;2022-12-13T05:43:22;55.13;;;32.42;;
40367;SDS011;26075;43.320;21.920;2022-12-13T05:48:23;56.30;;;30.45;;
40367;SDS011;26075;43.320;21.920;2022-12-13T05:59:21;41.38;;;27.95;;
40367;SDS011;26075;43.320;21.920;2022-12-13T06:04:22;44.65;;;27.85;;
40367;SDS011;26075;43.320;21.920;2022-12-13T06:09:23;43.38;;;27.50;;
40367;SDS011;26075;43.320;21.920;2022-12-13T06:14:24;45.50;;;28.73;;
40367;SDS011;26075;43.320;21.920;2022-12-13T06:19:25;46.95;;;32.25;;
40367;SDS011;26075;43.320;21.920;2022-12-13T06:24:32;49.55;;;31.00;;
40367;SDS011;26075;43.320;21.920;2022-12-13T06:29:33;44.80;;;30.10;;
40367;SDS011;26075;43.320;21.920;2022-12-13T06:34:34;38.92;;;25.73;;
40367;SDS011;26075;43.320;21.920;2022-12-13T06:39:35;41.60;;;28.33;;
40367;SDS011;26075;43.320;21.920;2022-12-13T06:44:36;43.95;;;27.92;;
40367;SDS011;26075;43.320;21.920;2022-12-13T06:49:37;46.88;;;31.17;;
40367;SDS011;26075;43.320;21.920;2022-12-13T06:54:39;47.35;;;32.58;;
40367;SDS011;26075;43.320;21.920;2022-12-13T06:59:42;48.65;;;32.03;;
40367;SDS011;26075;43.320;21.920;2022-12-13T07:04:43;46.40;;;31.25;;
40367;SDS011;26075;43.320;21.920;2022-12-13T07:09:44;46.97;;;31.52;;
40367;SDS011;26075;43.320;21.920;2022-12-13T07:14:46;42.40;;;26.83;;
40367;SDS011;26075;43.320;21.920;2022-12-13T07:19:47;45.97;;;28.88;;
40367;SDS011;26075;43.320;21.920;2022-12-13T07:24:48;60.53;;;37.35;;
40367;SDS011;26075;43.320;21.920;2022-12-13T07:29:49;60.85;;;39.03;;
40367;SDS011;26075;43.320;21.920;2022-12-13T07:34:55;57.78;;;38.70;;
40367;SDS011;26075;43.320;21.920;2022-12-13T07:39:57;67.65;;;42.13;;
40367;SDS011;26075;43.320;21.920;2022-12-13T07:44:59;69.13;;;46.58;;
40367;SDS011;26075;43.320;21.920;2022-12-13T07:50:00;70.57;;;43.65;;
40367;SDS011;26075;43.320;21.920;2022-12-13T07:55:01;71.03;;;46.97;;
40367;SDS011;26075;43.320;21.920;2022-12-13T08:00:03;61.55;;;43.90;;
40367;SDS011;26075;43.320;21.920;2022-12-13T08:05:04;71.63;;;48.15;;
40367;SDS011;26075;43.320;21.920;2022-12-13T08:10:06;66.68;;;46.85;;
40367;SDS011;26075;43.320;21.920;2022-12-13T08:15:07;66.43;;;45.33;;
40367;SDS011;26075;43.320;21.920;2022-12-13T08:20:09;65.95;;;43.63;;
40367;SDS011;26075;43.320;21.920;2022-12-13T08:25:10;61.67;;;41.55;;
40367;SDS011;26075;43.320;21.920;2022-12-13T08:30:11;60.17;;;40.03;;
40367;SDS011;26075;43.320;21.920;2022-12-13T08:35:12;67.18;;;46.28;;
40367;SDS011;26075;43.320;21.920;2022-12-13T08:40:13;79.65;;;53.53;;
40367;SDS011;26075;43.320;21.920;2022-12-13T08:45:14;80.25;;;53.28;;
40367;SDS011;26075;43.320;21.920;2022-12-13T08:50:15;61.80;;;41.55;;
40367;SDS011;26075;43.320;21.920;2022-12-13T08:55:16;62.97;;;41.40;;
40367;SDS011;26075;43.320;21.920;2022-12-13T09:00:18;62.35;;;38.55;;
40367;SDS011;26075;43.320;21.920;2022-12-13T09:05:19;53.65;;;37.13;;
40367;SDS011;26075;43.320;21.920;2022-12-13T09:10:20;57.42;;;39.22;;
40367;SDS011;26075;43.320;21.920;2022-12-13T09:15:21;61.95;;;43.05;;
40367;SDS011;26075;43.320;21.920;2022-12-13T09:20:22;67.18;;;44.45;;
40367;SDS011;26075;43.320;21.920;2022-12-13T09:25:24;71.13;;;45.10;;
40367;SDS011;26075;43.320;21.920;2022-12-13T09:30:25;63.75;;;44.58;;
40367;SDS011;26075;43.320;21.920;2022-12-13T09:35:36;67.18;;;45.22;;
40367;SDS011;26075;43.320;21.920;2022-12-13T09:40:38;62.83;;;42.63;;
40367;SDS011;26075;43.320;21.920;2022-12-13T09:45:39;63.40;;;43.78;;
40367;SDS011;26075;43.320;21.920;2022-12-13T09:50:44;62.60;;;42.20;;
40367;SDS011;26075;43.320;21.920;2022-12-13T09:55:50;68.85;;;47.30;;
40367;SDS011;26075;43.320;21.920;2022-12-13T10:00:53;65.70;;;44.53;;
40367;SDS011;26075;43.320;21.920;2022-12-13T10:05:57;70.43;;;47.88;;
40367;SDS011;26075;43.320;21.920;2022-12-13T10:11:03;76.30;;;50.25;;
40367;SDS011;26075;43.320;21.920;2022-12-13T10:16:13;70.03;;;46.15;;
40367;SDS011;26075;43.320;21.920;2022-12-13T10:21:37;72.22;;;46.83;;
40367;SDS011;26075;43.320;21.920;2022-12-13T10:32:11;56.88;;;39.30;;
40367;SDS011;26075;43.320;21.920;2022-12-13T10:42:22;50.83;;;34.83;;
40367;SDS011;26075;43.320;21.920;2022-12-13T10:47:23;47.67;;;30.48;;
40367;SDS011;26075;43.320;21.920;2022-12-13T10:57:50;46.92;;;32.60;;
40367;SDS011;26075;43.320;21.920;2022-12-13T11:03:04;47.00;;;31.30;;
40367;SDS011;26075;43.320;21.920;2022-12-13T11:13:31;44.80;;;29.45;;
40367;SDS011;26075;43.320;21.920;2022-12-13T11:18:37;50.80;;;32.50;;
40367;SDS011;26075;43.320;21.920;2022-12-13T11:23:56;53.08;;;35.80;;
40367;SDS011;26075;43.320;21.920;2022-12-13T11:40:14;43.38;;;29.30;;
40367;SDS011;26075;43.320;21.920;2022-12-13T11:45:23;61.78;;;42.55;;
40367;SDS011;26075;43.320;21.920;2022-12-13T11:50:41;73.78;;;51.17;;
40367;SDS011;26075;43.320;21.920;2022-12-13T11:55:47;77.95;;;52.40;;
40367;SDS011;26075;43.320;21.920;2022-12-13T12:00:59;76.57;;;50.25;;
40367;SDS011;26075;43.320;21.920;2022-12-13T12:11:33;51.83;;;34.30;;
40367;SDS011;26075;43.320;21.920;2022-12-13T12:16:51;50.53;;;32.53;;
40367;SDS011;26075;43.320;21.920;2022-12-13T12:43:21;67.38;;;44.50;;
40367;SDS011;26075;43.320;21.920;2022-12-13T13:05:15;66.90;;;45.25;;
40367;SDS011;26075;43.320;21.920;2022-12-13T13:15:55;59.60;;;40.45;;
40367;SDS011;26075;43.320;21.920;2022-12-13T13:21:23;62.70;;;41.90;;
40367;SDS011;26075;43.320;21.920;2022-12-13T13:26:38;65.00;;;42.38;;
40367;SDS011;26075;43.320;21.920;2022-12-13T13:32:24;65.82;;;43.22;;
40367;SDS011;26075;43.320;21.920;2022-12-13T13:42:25;67.20;;;44.08;;
40367;SDS011;26075;43.320;21.920;2022-12-13T14:30:27;75.43;;;49.28;;
40367;SDS011;26075;43.320;21.920;2022-12-13T14:35:30;73.10;;;50.53;;
40367;SDS011;26075;43.320;21.920;2022-12-13T14:45:36;76.35;;;52.13;;
40367;SDS011;26075;43.320;21.920;2022-12-13T14:50:39;82.28;;;52.35;;
40367;SDS011;26075;43.320;21.920;2022-12-13T14:55:42;84.13;;;52.37;;
40367;SDS011;26075;43.320;21.920;2022-12-13T15:07:35;84.22;;;53.88;;
40367;SDS011;26075;43.320;21.920;2022-12-13T15:12:29;85.53;;;54.83;;
40367;SDS011;26075;43.320;21.920;2022-12-13T15:17:34;84.38;;;52.30;;
40367;SDS011;26075;43.320;21.920;2022-12-13T15:22:37;89.22;;;59.28;;
40367;SDS011;26075;43.320;21.920;2022-12-13T15:27:38;94.35;;;61.22;;
40367;SDS011;26075;43.320;21.920;2022-12-13T15:33:00;110.05;;;70.97;;
40367;SDS011;26075;43.320;21.920;2022-12-13T15:38:04;105.25;;;70.85;;
40367;SDS011;26075;43.320;21.920;2022-12-13T15:43:17;122.22;;;78.22;;
40367;SDS011;26075;43.320;21.920;2022-12-13T15:48:23;121.70;;;80.90;;
40367;SDS011;26075;43.320;21.920;2022-12-13T15:53:27;118.05;;;78.35;;
40367;SDS011;26075;43.320;21.920;2022-12-13T15:58:30;110.85;;;74.30;;
40367;SDS011;26075;43.320;21.920;2022-12-13T16:03:40;94.93;;;63.35;;
40367;SDS011;26075;43.320;21.920;2022-12-13T16:14:40;88.03;;;59.40;;
40367;SDS011;26075;43.320;21.920;2022-12-13T16:25:17;96.90;;;63.88;;
40367;SDS011;26075;43.320;21.920;2022-12-13T16:30:26;93.75;;;61.13;;
40367;SDS011;26075;43.320;21.920;2022-12-13T16:35:47;107.03;;;71.70;;
40367;SDS011;26075;43.320;21.920;2022-12-13T16:40:48;91.93;;;56.28;;
40367;SDS011;26075;43.320;21.920;2022-12-13T16:51:47;153.13;;;101.97;;
40367;SDS011;26075;43.320;21.920;2022-12-13T16:56:57;159.60;;;105.40;;
40367;SDS011;26075;43.320;21.920;2022-12-13T17:01:58;147.35;;;99.93;;
40367;SDS011;26075;43.320;21.920;2022-12-13T17:06:58;142.43;;;93.93;;
40367;SDS011;26075;43.320;21.920;2022-12-13T17:11:59;153.05;;;102.32;;
40367;SDS011;26075;43.320;21.920;2022-12-13T17:17:00;153.25;;;107.28;;
40367;SDS011;26075;43.320;21.920;2022-12-13T17:22:01;174.60;;;116.90;;
40367;SDS011;26075;43.320;21.920;2022-12-13T17:32:34;168.95;;;111.00;;
40367;SDS011;26075;43.320;21.920;2022-12-13T17:43:32;182.00;;;119.93;;
40367;SDS011;26075;43.320;21.920;2022-12-13T17:48:40;157.82;;;104.63;;
40367;SDS011;26075;43.320;21.920;2022-12-13T17:53:42;165.95;;;104.53;;
40367;SDS011;26075;43.320;21.920;2022-12-13T18:04:05;156.55;;;103.35;;
40367;SDS011;26075;43.320;21.920;2022-12-13T18:14:54;192.55;;;127.43;;
40367;SDS011;26075;43.320;21.920;2022-12-13T18:19:56;222.35;;;143.57;;
40367;SDS011;26075;43.320;21.920;2022-12-13T18:24:56;231.15;;;151.82;;
40367;SDS011;26075;43.320;21.920;2022-12-13T18:29:58;232.10;;;153.80;;
40367;SDS011;26075;43.320;21.920;2022-12-13T18:34:58;164.68;;;111.70;;
40367;SDS011;26075;43.320;21.920;2022-12-13T18:39:59;143.15;;;97.65;;
40367;SDS011;26075;43.320;21.920;2022-12-13T18:45:02;133.82;;;91.03;;
40367;SDS011;26075;43.320;21.920;2022-12-13T18:50:03;128.00;;;87.65;;
40367;SDS011;26075;43.320;21.920;2022-12-13T19:01:02;170.18;;;110.75;;
40367;SDS011;26075;43.320;21.920;2022-12-13T19:12:00;161.77;;;107.78;;
40367;SDS011;26075;43.320;21.920;2022-12-13T19:27:58;113.53;;;77.53;;
40367;SDS011;26075;43.320;21.920;2022-12-13T19:32:59;108.57;;;72.38;;
40367;SDS011;26075;43.320;21.920;2022-12-13T19:38:08;116.28;;;75.70;;
40367;SDS011;26075;43.320;21.920;2022-12-13T19:43:09;91.90;;;62.05;;
40367;SDS011;26075;43.320;21.920;2022-12-13T19:48:11;97.95;;;66.57;;
40367;SDS011;26075;43.320;21.920;2022-12-13T19:53:12;106.05;;;70.05;;
40367;SDS011;26075;43.320;21.920;2022-12-13T20:09:11;120.53;;;82.63;;
40367;SDS011;26075;43.320;21.920;2022-12-13T20:20:29;115.55;;;76.82;;
40367;SDS011;26075;43.320;21.920;2022-12-13T20:25:30;99.07;;;67.35;;
40367;SDS011;26075;43.320;21.920;2022-12-13T20:30:31;99.95;;;67.20;;
40367;SDS011;26075;43.320;21.920;2022-12-13T20:35:32;94.18;;;64.95;;
40367;SDS011;26075;43.320;21.920;2022-12-13T20:51:31;92.68;;;63.38;;
40367;SDS011;26075;43.320;21.920;2022-12-13T20:56:33;95.07;;;63.40;;
40367;SDS011;26075;43.320;21.920;2022-12-13T21:07:33;90.47;;;59.45;;
40367;SDS011;26075;43.320;21.920;2022-12-13T21:12:57;91.38;;;63.25;;
40367;SDS011;26075;43.320;21.920;2022-12-13T21:17:58;96.88;;;67.30;;
40367;SDS011;26075;43.320;21.920;2022-12-13T21:28:33;163.77;;;104.30;;
40367;SDS011;26075;43.320;21.920;2022-12-13T21:33:35;152.43;;;101.80;;
40367;SDS011;26075;43.320;21.920;2022-12-13T21:38:36;128.10;;;85.97;;
40367;SDS011;26075;43.320;21.920;2022-12-13T21:43:38;123.55;;;81.65;;
40367;SDS011;26075;43.320;21.920;2022-12-13T22:05:00;124.82;;;85.75;;
40367;SDS011;26075;43.320;21.920;2022-12-13T22:31:56;121.82;;;82.88;;
40367;SDS011;26075;43.320;21.920;2022-12-13T22:36:57;106.82;;;70.97;;
40367;SDS011;26075;43.320;21.920;2022-12-13T22:42:12;86.05;;;58.10;;
40367;SDS011;26075;43.320;21.920;2022-12-13T22:47:12;83.57;;;54.13;;
40367;SDS011;26075;43.320;21.920;2022-12-13T22:57:53;74.68;;;51.83;;
40367;SDS011;26075;43.320;21.920;2022-12-13T23:02:54;74.45;;;50.47;;
40367;SDS011;26075;43.320;21.920;2022-12-13T23:07:55;72.10;;;50.30;;
40367;SDS011;26075;43.320;21.920;2022-12-13T23:12:56;66.38;;;47.97;;
40367;SDS011;26075;43.320;21.920;2022-12-13T23:18:03;65.03;;;44.10;;
40367;SDS011;26075;43.320;21.920;2022-12-13T23:29:02;58.78;;;39.58;;
40367;SDS011;26075;43.320;21.920;2022-12-13T23:34:04;47.25;;;30.85;;
40367;SDS011;26075;43.320;21.920;2022-12-13T23:44:45;30.33;;;21.92;;
40367;SDS011;26075;43.320;21.920;2022-12-13T23:49:46;28.98;;;19.60;;
40367;SDS011;26075;43.320;21.920;2022-12-13T23:54:47;25.02;;;17.52;;
40367;SDS011;26075;43.320;21.920;2022-12-13T23:59:48;24.50;;;17.80;;
